map of KPUJ home
KPUJ - Airport
Location
City:  Atlanta, Georgia, United States
Near (Alt.):Dallas
Name:Silver Comet Field at Paulding Northwest Atlanta Airport
ICAO:KPUJ
FAA LID:PUJ

Details
Type:Airport (Airfield)
Use:Public/Civil
Latitude:3354'43"N (33.912043)
Longitude:8456'26"W (-84.940618)
Datum:WGS 1984
Elevation:1289 ft (393 m)
Variation:4.86W (WMM2015 magnetic declination)
-0.08 annual change
Runways:1
Longest:5505 × 100 ft (1678 × 30.5 m), paved

Time
Time Zone:UTC-5 (DST-4)
Local Time:

Weather
METAR:KPUJ 150015Z AUTO 00000KT 5SM RA OVC004 06/06 A3020 RMK AO2

Related Locations
Nearby:
Farthest:MQZ: 11294 mi / 18177 km
Margaret River [Margaret River Airport], WA, AU

Find:

   beyond  
but within

Other Information
Maps:
NOTAMs:
Links:
Sources:

  
  • flag of United States
  • flag of Georgia
  • flag of Atlanta
  

Sectional Chart

Flight Planning
at skyvector.com

Satellite Image

Google Maps Satellite view

 

Copyright © 2004-2018 Karl L. Swartz. All rights reserved.
The Great Circle Mapper name and logo are trademarks of the Great Circle Mapper.
All other trademarks mentioned herein belong to their respective owners.
Please see credits for attibutions and further copyright information.

  Follow gcmap on Facebook Follow gcmap on Twitter Follow gcmap on Google+ GCmap on LinkedIn

hCard Microformat

Geo Microformat